Time;durP1;ratioP1;P1;durP2;ratioP2;P2;SDS_P1;SDS_P2;PMS_P1;PMS_P2;Temp;Humidity;BMP_temperature;BMP_pressure;BME280_temperature;BME280_humidity;BME280_pressure;Samples;Min_cycle;Max_cycle;Signal;HPM_P1;HPM_P2
2023/06/11 00:01:34;;;;;;;7.35;3.40;;;23.00;78.70;;;;;;7406700;19;19922;-74
2023/06/11 00:04:00;;;;;;;8.95;3.45;;;23.10;78.70;;;;;;7405513;19;19915;-73
2023/06/11 00:06:27;;;;;;;7.03;3.13;;;23.10;78.60;;;;;;7404943;19;19925;-74
2023/06/11 00:08:55;;;;;;;8.48;3.35;;;23.00;78.50;;;;;;7408277;19;20263;-73
2023/06/11 00:11:21;;;;;;;7.38;2.88;;;23.00;78.40;;;;;;7405031;19;20335;-73
2023/06/11 00:13:48;;;;;;;5.72;2.65;;;22.90;78.50;;;;;;7406926;19;19926;-73
2023/06/11 00:16:15;;;;;;;6.88;2.90;;;22.90;78.70;;;;;;7405596;19;19918;-73
2023/06/11 00:18:42;;;;;;;7.22;3.13;;;22.90;78.80;;;;;;7405508;19;19926;-73
2023/06/11 00:21:12;;;;;;;7.22;3.20;;;22.80;78.90;;;;;;7400611;19;19923;-75
2023/06/11 00:23:39;;;;;;;7.22;2.90;;;22.80;79.20;;;;;;7408194;19;19986;-73
2023/06/11 00:26:06;;;;;;;6.60;2.55;;;22.80;79.40;;;;;;7403974;19;19915;-73
2023/06/11 00:28:33;;;;;;;6.45;3.33;;;22.70;79.50;;;;;;7402266;19;20695;-74
2023/06/11 00:31:00;;;;;;;8.88;4.47;;;22.80;80.50;;;;;;7401415;19;19919;-73
2023/06/11 00:33:26;;;;;;;8.15;3.83;;;22.70;80.60;;;;;;7403821;19;19925;-72
2023/06/11 00:35:51;;;;;;;9.30;4.13;;;22.70;81.00;;;;;;7407556;19;19931;-75
2023/06/11 00:38:20;;;;;;;12.52;4.40;;;22.60;82.30;;;;;;7370856;19;19922;-73
2023/06/11 00:40:47;;;;;;;7.65;4.13;;;22.60;82.90;;;;;;7403279;19;19911;-73
2023/06/11 00:43:13;;;;;;;7.63;4.00;;;22.60;82.70;;;;;;7400769;19;19939;-74
2023/06/11 00:45:39;;;;;;;7.60;4.07;;;22.70;82.80;;;;;;7400156;19;19919;-72
2023/06/11 00:48:05;;;;;;;6.85;3.72;;;22.70;82.40;;;;;;7401578;19;19955;-73
2023/06/11 00:50:44;;;;;;;10.35;4.45;;;22.70;82.30;;;;;;7401007;19;20363;-73
2023/06/11 00:53:14;;;;;;;9.00;4.05;;;22.70;82.30;;;;;;7367436;19;19941;-72
2023/06/11 00:55:40;;;;;;;8.88;4.30;;;22.70;82.30;;;;;;7405264;19;19931;-73
2023/06/11 00:58:13;;;;;;;8.07;4.40;;;22.70;82.20;;;;;;7399238;19;19933;-74
2023/06/11 01:00:49;;;;;;;10.07;3.63;;;22.80;82.10;;;;;;7404277;19;19918;-73
2023/06/11 01:03:18;;;;;;;7.05;3.70;;;22.80;81.80;;;;;;7400166;19;20343;-74
2023/06/11 01:06:11;;;;;;;11.25;4.57;;;22.80;81.60;;;;;;7406173;19;20239;-73
2023/06/11 01:08:39;;;;;;;10.05;3.80;;;22.80;81.50;;;;;;7402381;19;19925;-73
2023/06/11 01:11:17;;;;;;;8.75;4.20;;;22.90;81.40;;;;;;7401744;19;20015;-73
2023/06/11 01:13:43;;;;;;;12.50;4.43;;;22.90;81.40;;;;;;7405039;19;19922;-73
2023/06/11 01:16:36;;;;;;;10.70;4.22;;;22.90;81.40;;;;;;7400221;19;19923;-73
2023/06/11 01:19:16;;;;;;;10.32;4.05;;;22.80;81.70;;;;;;7398061;19;19925;-72
2023/06/11 01:21:48;;;;;;;8.27;3.80;;;22.70;82.30;;;;;;7404849;19;19918;-72
2023/06/11 01:24:43;;;;;;;10.57;4.95;;;22.60;82.90;;;;;;7402124;19;20485;-73
2023/06/11 01:27:15;;;;;;;9.98;4.63;;;22.60;83.30;;;;;;7401738;19;19918;-73
2023/06/11 01:29:45;;;;;;;10.93;4.78;;;22.70;83.30;;;;;;7403701;19;19933;-73
2023/06/11 01:32:12;;;;;;;12.55;4.43;;;22.70;83.00;;;;;;7401667;19;19921;-73
2023/06/11 01:34:42;;;;;;;11.27;4.28;;;22.80;82.80;;;;;;7404782;19;20323;-73
2023/06/11 01:37:15;;;;;;;10.02;3.88;;;22.80;82.70;;;;;;7402801;19;20339;-74
2023/06/11 01:39:45;;;;;;;8.52;4.55;;;22.90;82.50;;;;;;7401588;19;19926;-73
2023/06/11 01:42:12;;;;;;;9.85;4.15;;;23.00;82.10;;;;;;7401093;19;20331;-74
2023/06/11 01:44:37;;;;;;;9.80;4.32;;;22.90;82.00;;;;;;7402690;19;19922;-74
2023/06/11 01:47:03;;;;;;;8.10;4.38;;;23.00;81.90;;;;;;7401474;19;20352;-74
2023/06/11 01:49:30;;;;;;;7.40;3.60;;;23.00;81.90;;;;;;7404370;19;19930;-73
2023/06/11 01:51:57;;;;;;;6.63;3.72;;;23.00;81.40;;;;;;7403085;19;19915;-73
2023/06/11 01:54:23;;;;;;;9.48;3.97;;;22.90;81.00;;;;;;7400939;19;19915;-74
2023/06/11 01:56:49;;;;;;;8.02;3.65;;;22.90;81.30;;;;;;7403604;19;19919;-74
2023/06/11 01:59:17;;;;;;;6.82;3.78;;;22.90;81.50;;;;;;7401474;19;19929;-73
2023/06/11 02:01:43;;;;;;;8.05;3.45;;;22.90;81.80;;;;;;7402888;19;19914;-74
2023/06/11 02:04:09;;;;;;;7.13;3.85;;;22.90;81.90;;;;;;7402354;19;19929;-74
2023/06/11 02:06:35;;;;;;;7.15;3.90;;;22.80;82.00;;;;;;7401074;19;20028;-74
2023/06/11 02:09:00;;;;;;;6.93;3.67;;;22.70;82.10;;;;;;7400596;19;19911;-74
2023/06/11 02:11:26;;;;;;;7.50;3.47;;;22.70;82.30;;;;;;7403392;19;19924;-73
2023/06/11 02:13:52;;;;;;;7.80;3.85;;;22.70;82.60;;;;;;7403670;19;20247;-74
2023/06/11 02:16:18;;;;;;;8.00;4.15;;;22.70;82.70;;;;;;7401721;19;19914;-75
2023/06/11 02:18:43;;;;;;;7.25;3.75;;;22.70;82.60;;;;;;7402829;19;19925;-76
2023/06/11 02:21:09;;;;;;;7.63;3.90;;;22.70;82.50;;;;;;7401444;19;19930;-75
2023/06/11 02:23:36;;;;;;;8.48;3.88;;;22.70;82.50;;;;;;7401701;19;20298;-74
2023/06/11 02:26:02;;;;;;;7.18;3.63;;;22.60;82.60;;;;;;7397072;19;20239;-74
2023/06/11 02:28:28;;;;;;;6.85;3.90;;;22.60;82.70;;;;;;7402046;19;20320;-75
2023/06/11 02:30:54;;;;;;;6.85;3.50;;;22.60;82.90;;;;;;7399960;19;19924;-73
2023/06/11 02:33:20;;;;;;;9.50;4.40;;;22.60;83.10;;;;;;7400588;19;19939;-74
2023/06/11 02:35:45;;;;;;;9.93;4.57;;;22.60;83.20;;;;;;7402603;19;19983;-73
2023/06/11 02:38:11;;;;;;;9.52;4.43;;;22.60;83.80;;;;;;7400375;19;19922;-74
2023/06/11 02:40:37;;;;;;;10.95;4.40;;;22.60;83.50;;;;;;7400019;19;19918;-74
2023/06/11 02:43:03;;;;;;;8.93;4.07;;;22.60;83.40;;;;;;7397786;19;19914;-72
2023/06/11 02:45:29;;;;;;;8.98;4.30;;;22.50;83.40;;;;;;7400793;19;19922;-74
2023/06/11 02:47:55;;;;;;;7.30;3.92;;;22.50;83.50;;;;;;7400113;19;19925;-74
2023/06/11 02:50:20;;;;;;;7.05;3.95;;;22.50;83.40;;;;;;7397890;19;19919;-74
2023/06/11 02:52:46;;;;;;;6.93;3.65;;;22.50;83.20;;;;;;7403422;19;19922;-75
2023/06/11 02:55:12;;;;;;;9.32;4.13;;;22.50;83.00;;;;;;7400367;19;19918;-74
2023/06/11 02:57:38;;;;;;;6.28;3.83;;;22.50;83.00;;;;;;7400923;19;19962;-74
2023/06/11 03:00:05;;;;;;;8.07;3.50;;;22.50;83.00;;;;;;7399935;19;19914;-73
2023/06/11 03:02:31;;;;;;;7.60;3.13;;;22.50;82.90;;;;;;7401394;19;20576;-73
2023/06/11 03:04:57;;;;;;;7.72;3.03;;;22.50;82.60;;;;;;7402053;19;19918;-73
2023/06/11 03:07:22;;;;;;;7.18;3.08;;;22.50;81.60;;;;;;7400686;19;19992;-73
2023/06/11 03:09:51;;;;;;;6.97;2.83;;;22.40;81.60;;;;;;7380908;19;20343;-73
2023/06/11 03:12:17;;;;;;;5.90;2.80;;;22.30;81.00;;;;;;7364080;19;19959;-73
2023/06/11 03:14:43;;;;;;;6.90;2.78;;;22.20;80.30;;;;;;7401452;19;20311;-73
2023/06/11 03:17:08;;;;;;;7.80;2.88;;;22.20;80.50;;;;;;7399213;19;19914;-73
2023/06/11 03:19:34;;;;;;;5.95;2.90;;;22.20;81.50;;;;;;7400912;19;19915;-73
2023/06/11 03:22:00;;;;;;;6.25;3.00;;;22.20;81.50;;;;;;7401818;19;19953;-73
2023/06/11 03:24:26;;;;;;;8.50;3.17;;;22.20;81.60;;;;;;7379767;19;19918;-73
2023/06/11 03:26:52;;;;;;;6.28;3.65;;;22.20;81.80;;;;;;7400588;19;20550;-73
2023/06/11 03:29:18;;;;;;;10.95;3.28;;;22.20;81.80;;;;;;7399773;19;19959;-73
2023/06/11 03:31:44;;;;;;;5.95;3.03;;;22.10;82.00;;;;;;7400951;19;19926;-73
2023/06/11 03:34:09;;;;;;;6.95;2.90;;;22.10;82.20;;;;;;7399990;19;19918;-73
2023/06/11 03:36:36;;;;;;;8.48;3.13;;;22.10;81.70;;;;;;7400537;19;19935;-73
2023/06/11 03:39:02;;;;;;;7.07;2.50;;;22.10;81.10;;;;;;7397820;19;19949;-73
2023/06/11 03:41:28;;;;;;;9.57;2.72;;;22.10;81.00;;;;;;7400888;19;19922;-72
2023/06/11 03:43:54;;;;;;;9.95;2.92;;;22.10;81.30;;;;;;7398789;19;19933;-72
2023/06/11 03:46:21;;;;;;;6.07;2.67;;;22.10;81.40;;;;;;7394888;19;19942;-73
2023/06/11 03:48:48;;;;;;;7.00;3.17;;;22.10;81.60;;;;;;7399249;19;19923;-72
2023/06/11 03:51:15;;;;;;;7.88;3.08;;;22.10;81.70;;;;;;7397091;19;19918;-72
2023/06/11 03:53:41;;;;;;;7.30;2.60;;;22.10;81.70;;;;;;7398690;19;19910;-72
2023/06/11 03:56:07;;;;;;;6.60;2.72;;;22.10;81.40;;;;;;7398860;19;19903;-73
2023/06/11 03:58:33;;;;;;;6.40;2.47;;;22.10;80.60;;;;;;7399265;19;19974;-73
2023/06/11 04:00:59;;;;;;;6.38;2.70;;;22.10;80.70;;;;;;7396541;19;19955;-73
2023/06/11 04:03:25;;;;;;;5.75;2.58;;;22.10;80.60;;;;;;7351550;19;20371;-73
2023/06/11 04:05:50;;;;;;;4.78;2.30;;;22.10;80.30;;;;;;7405792;19;19923;-74
2023/06/11 04:08:16;;;;;;;5.88;1.90;;;22.10;80.10;;;;;;7400467;19;19933;-73
2023/06/11 04:10:43;;;;;;;7.10;2.47;;;22.10;79.20;;;;;;7373022;19;19978;-73
2023/06/11 04:13:08;;;;;;;;;;;22.20;78.80;;;;;;7404338;19;19922;-73
2023/06/11 04:15:34;;;;;;;5.20;1.60;;;22.20;78.20;;;;;;7406751;19;19914;-74
2023/06/11 04:18:00;;;;;;;4.25;1.73;;;22.20;78.00;;;;;;7405918;19;19987;-73
2023/06/11 04:20:26;;;;;;;5.05;1.98;;;22.20;77.80;;;;;;7399744;19;19934;-73
2023/06/11 04:22:53;;;;;;;5.13;1.77;;;22.20;77.30;;;;;;7406186;19;19925;-75
2023/06/11 04:25:19;;;;;;;4.82;2.13;;;22.20;77.10;;;;;;7380690;19;19922;-75
2023/06/11 04:27:46;;;;;;;6.18;2.15;;;22.20;76.90;;;;;;7406988;19;19960;-74
2023/06/11 04:30:14;;;;;;;6.78;2.25;;;22.30;76.80;;;;;;7404459;19;19921;-73
2023/06/11 04:32:41;;;;;;;5.38;1.88;;;22.20;76.00;;;;;;7406911;19;19921;-73
2023/06/11 04:35:07;;;;;;;4.40;2.13;;;22.20;75.70;;;;;;7402673;19;19948;-74
2023/06/11 04:37:40;;;;;;;5.15;1.80;;;22.20;75.70;;;;;;7404736;19;19918;-75
2023/06/11 04:40:10;;;;;;;4.20;1.65;;;22.20;75.80;;;;;;7405763;19;19947;-74
2023/06/11 04:42:38;;;;;;;4.38;1.80;;;22.20;76.00;;;;;;7402612;19;20338;-74
2023/06/11 04:45:05;;;;;;;3.78;1.58;;;22.30;75.50;;;;;;7402502;19;19943;-75
2023/06/11 04:47:33;;;;;;;4.22;1.70;;;22.30;75.30;;;;;;7406343;19;19923;-73
2023/06/11 04:50:03;;;;;;;3.47;1.55;;;22.30;74.90;;;;;;7404963;19;19974;-75
2023/06/11 04:52:31;;;;;;;3.65;1.33;;;22.40;74.40;;;;;;7404238;19;19957;-74
2023/06/11 04:55:02;;;;;;;3.20;1.38;;;22.50;74.30;;;;;;7406915;19;20757;-73
2023/06/11 04:57:34;;;;;;;7.15;1.80;;;22.60;73.90;;;;;;7375682;19;20251;-74
2023/06/11 05:00:00;;;;;;;4.03;1.48;;;22.70;73.70;;;;;;7406268;19;19918;-75
2023/06/11 05:02:26;;;;;;;5.10;1.55;;;22.70;73.60;;;;;;7404507;19;19923;-74
2023/06/11 05:04:53;;;;;;;3.35;1.30;;;22.80;73.50;;;;;;7402930;19;20426;-74
2023/06/11 05:07:22;;;;;;;3.38;1.40;;;22.70;72.80;;;;;;7405945;19;19918;-74
2023/06/11 05:09:47;;;;;;;4.03;1.50;;;22.60;72.80;;;;;;7410889;19;19949;-75
2023/06/11 05:12:13;;;;;;;3.88;1.77;;;22.60;72.90;;;;;;7405340;19;19910;-75
2023/06/11 05:14:39;;;;;;;4.47;1.70;;;22.70;73.10;;;;;;7402482;19;19949;-75
2023/06/11 05:17:05;;;;;;;4.15;1.88;;;22.80;73.10;;;;;;7386005;19;19919;-74
2023/06/11 05:19:30;;;;;;;4.55;1.83;;;22.90;73.10;;;;;;7406684;19;19942;-75
2023/06/11 05:21:56;;;;;;;5.40;1.77;;;22.90;73.00;;;;;;7408066;19;20015;-74
2023/06/11 05:24:28;;;;;;;3.88;1.77;;;23.00;72.80;;;;;;7408558;19;19931;-74
2023/06/11 05:26:58;;;;;;;4.95;1.85;;;23.10;72.70;;;;;;7406901;19;19921;-74
2023/06/11 05:29:25;;;;;;;5.43;2.35;;;23.10;73.00;;;;;;7376643;19;19924;-75
2023/06/11 05:31:51;;;;;;;3.70;1.40;;;23.10;72.90;;;;;;7405737;19;20606;-75
2023/06/11 05:34:17;;;;;;;4.60;1.67;;;23.20;72.60;;;;;;7399255;19;20347;-74
2023/06/11 05:36:45;;;;;;;5.80;2.33;;;23.30;72.40;;;;;;7406524;19;19922;-75
2023/06/11 05:39:12;;;;;;;4.35;2.00;;;23.30;72.30;;;;;;7406753;19;19914;-75
2023/06/11 05:41:38;;;;;;;4.85;1.88;;;23.40;72.00;;;;;;7405229;19;19925;-75
2023/06/11 05:44:05;;;;;;;4.80;2.33;;;23.50;72.00;;;;;;7401880;19;19922;-75
2023/06/11 05:46:31;;;;;;;4.43;2.40;;;23.50;72.00;;;;;;7404815;19;19918;-75
2023/06/11 05:48:59;;;;;;;6.25;3.50;;;23.50;71.90;;;;;;7407080;19;19922;-74
2023/06/11 05:51:25;;;;;;;4.95;2.45;;;23.60;71.60;;;;;;7405310;19;19919;-75
2023/06/11 05:53:51;;;;;;;4.43;1.92;;;23.70;71.40;;;;;;7402955;19;19922;-74
2023/06/11 05:56:17;;;;;;;6.40;1.98;;;23.80;71.30;;;;;;7407359;19;19918;-75
2023/06/11 05:58:43;;;;;;;4.60;1.98;;;23.80;71.50;;;;;;7404654;19;19951;-74
2023/06/11 06:01:12;;;;;;;7.05;2.55;;;23.80;71.40;;;;;;7371044;19;20331;-75
2023/06/11 06:03:38;;;;;;;4.97;1.70;;;23.80;71.40;;;;;;7404608;19;19919;-74
2023/06/11 06:06:04;;;;;;;5.78;2.00;;;23.90;71.60;;;;;;7404305;19;20326;-75
2023/06/11 06:08:30;;;;;;;5.63;2.30;;;24.00;71.50;;;;;;7401463;19;19910;-76
2023/06/11 06:10:57;;;;;;;3.63;1.73;;;24.00;71.40;;;;;;7407608;19;19922;-74
2023/06/11 06:13:26;;;;;;;6.07;1.58;;;24.00;70.80;;;;;;7399609;19;20376;-74
2023/06/11 06:15:55;;;;;;;2.95;1.52;;;24.00;69.80;;;;;;7404718;19;20241;-74
2023/06/11 06:18:21;;;;;;;3.78;1.58;;;24.10;69.30;;;;;;7399528;19;19927;-76
2023/06/11 06:20:47;;;;;;;3.30;1.42;;;24.20;69.10;;;;;;7406218;19;19926;-75
2023/06/11 06:23:13;;;;;;;3.60;1.50;;;24.20;68.40;;;;;;7403572;19;19925;-74
2023/06/11 06:25:38;;;;;;;4.03;1.60;;;24.20;68.90;;;;;;7403362;19;19923;-75
2023/06/11 06:28:08;;;;;;;5.10;1.50;;;24.30;68.00;;;;;;7404405;19;20466;-75
2023/06/11 06:30:34;;;;;;;5.18;1.80;;;24.30;68.00;;;;;;7406098;19;19922;-75
2023/06/11 06:33:00;;;;;;;3.25;1.33;;;24.30;67.70;;;;;;7402905;19;19910;-75
2023/06/11 06:35:29;;;;;;;3.78;1.35;;;24.40;67.50;;;;;;7404255;19;19922;-74
2023/06/11 06:37:55;;;;;;;3.00;1.25;;;24.50;67.60;;;;;;7407375;19;19915;-75
2023/06/11 06:40:21;;;;;;;3.88;1.33;;;24.60;67.20;;;;;;7404497;19;19934;-76
2023/06/11 06:42:47;;;;;;;3.70;1.35;;;24.70;67.10;;;;;;7405322;19;19911;-75
2023/06/11 06:45:13;;;;;;;4.05;1.10;;;24.70;66.80;;;;;;7403681;19;19939;-74
2023/06/11 06:47:39;;;;;;;3.67;1.45;;;24.80;66.60;;;;;;7402896;19;19978;-75
2023/06/11 06:50:05;;;;;;;3.58;1.40;;;25.00;66.20;;;;;;7401347;19;19914;-74
2023/06/11 06:52:30;;;;;;;4.70;1.50;;;25.00;65.60;;;;;;7402215;19;19918;-75
2023/06/11 06:54:56;;;;;;;5.88;1.42;;;25.20;65.20;;;;;;7405785;19;19945;-75
2023/06/11 06:57:22;;;;;;;3.70;1.15;;;25.20;64.60;;;;;;7401467;19;19930;-74
2023/06/11 06:59:48;;;;;;;4.30;1.42;;;25.30;64.00;;;;;;7401785;19;19978;-74
2023/06/11 07:02:14;;;;;;;4.50;1.30;;;25.30;64.00;;;;;;7398545;19;19939;-75
2023/06/11 07:04:41;;;;;;;3.15;1.13;;;25.50;63.40;;;;;;7402030;19;19919;-75
2023/06/11 07:07:07;;;;;;;3.60;1.30;;;25.60;63.00;;;;;;7398046;19;19935;-73
2023/06/11 07:09:33;;;;;;;4.90;1.00;;;25.70;62.70;;;;;;7402999;19;19923;-75
2023/06/11 07:11:59;;;;;;;3.20;1.70;;;25.80;62.30;;;;;;7401991;19;19925;-75
2023/06/11 07:14:25;;;;;;;3.60;1.60;;;25.80;62.10;;;;;;7378040;19;19926;-74
2023/06/11 07:16:51;;;;;;;4.75;1.60;;;25.90;62.10;;;;;;7372439;19;19925;-74
2023/06/11 07:19:16;;;;;;;3.65;1.58;;;26.00;61.50;;;;;;7403750;19;19910;-76
2023/06/11 07:21:42;;;;;;;4.60;1.55;;;25.90;61.70;;;;;;7402233;19;19910;-75
2023/06/11 07:24:08;;;;;;;3.00;1.33;;;26.00;61.10;;;;;;7401555;19;19940;-74
2023/06/11 07:26:34;;;;;;;3.95;2.20;;;26.00;60.70;;;;;;7402498;19;19924;-74
2023/06/11 07:29:00;;;;;;;6.43;4.78;;;26.10;60.50;;;;;;7404148;19;20525;-74
2023/06/11 07:31:26;;;;;;;5.10;1.95;;;26.10;60.70;;;;;;7404413;19;20337;-75
2023/06/11 07:33:52;;;;;;;3.40;1.30;;;26.30;60.70;;;;;;7403365;19;19918;-75
2023/06/11 07:36:18;;;;;;;5.35;2.83;;;26.30;60.50;;;;;;7403378;19;19974;-75
2023/06/11 07:38:44;;;;;;;5.50;2.08;;;26.30;60.80;;;;;;7409776;19;19943;-75
2023/06/11 07:41:12;;;;;;;3.95;1.45;;;26.30;60.50;;;;;;7410660;19;19974;-75
2023/06/11 07:43:38;;;;;;;3.40;1.33;;;26.30;60.40;;;;;;7411127;19;20366;-75
2023/06/11 07:46:04;;;;;;;3.78;1.42;;;26.30;60.70;;;;;;7408643;19;19919;-75
2023/06/11 07:48:30;;;;;;;4.28;1.88;;;26.30;60.80;;;;;;7411497;19;20015;-75
2023/06/11 07:50:57;;;;;;;3.35;1.42;;;26.30;60.50;;;;;;7409465;19;19947;-75
2023/06/11 07:53:23;;;;;;;;;;;26.50;60.60;;;;;;7411402;19;19942;-75
2023/06/11 07:55:54;;;;;;;4.05;1.67;;;26.60;60.40;;;;;;7410640;19;19925;-74
2023/06/11 07:58:20;;;;;;;3.08;1.33;;;26.70;60.30;;;;;;7405868;19;19918;-75
2023/06/11 08:00:46;;;;;;;4.93;1.65;;;26.80;59.70;;;;;;7409218;19;19944;-74
2023/06/11 08:03:11;;;;;;;3.97;2.47;;;27.00;59.10;;;;;;7403027;19;19949;-77
2023/06/11 08:05:37;;;;;;;3.88;2.67;;;27.10;59.20;;;;;;7394080;19;19933;-73
2023/06/11 08:08:03;;;;;;;3.10;1.48;;;27.20;58.90;;;;;;7392791;19;19914;-70
2023/06/11 08:10:29;;;;;;;2.95;1.80;;;27.40;58.40;;;;;;7376519;19;19910;-71
2023/06/11 08:12:55;;;;;;;3.45;1.25;;;27.40;57.70;;;;;;7380862;19;19925;-72
2023/06/11 08:15:21;;;;;;;4.05;1.90;;;27.60;58.00;;;;;;7387359;19;19922;-71
2023/06/11 08:17:47;;;;;;;3.60;2.15;;;27.80;58.00;;;;;;7389293;19;19922;-72
2023/06/11 08:20:13;;;;;;;4.18;2.38;;;28.10;57.70;;;;;;7384442;19;19929;-72
2023/06/11 08:22:40;;;;;;;4.30;2.00;;;28.30;56.50;;;;;;7374335;19;19926;-72
2023/06/11 08:25:06;;;;;;;4.10;1.48;;;28.60;56.60;;;;;;7367721;19;19914;-70
2023/06/11 08:27:31;;;;;;;5.10;2.30;;;28.70;55.10;;;;;;7376092;19;19923;-72
2023/06/11 08:29:57;;;;;;;4.47;2.58;;;28.70;54.60;;;;;;7370701;19;19914;-70
2023/06/11 08:32:24;;;;;;;4.53;2.40;;;28.50;54.90;;;;;;7372505;19;19918;-70
2023/06/11 08:34:50;;;;;;;3.70;2.40;;;28.70;54.60;;;;;;7381460;19;19929;-70
2023/06/11 08:37:16;;;;;;;4.57;1.40;;;28.90;54.10;;;;;;7369507;19;20626;-72
2023/06/11 08:39:42;;;;;;;4.80;2.72;;;29.00;53.80;;;;;;7358566;19;19929;-70
2023/06/11 08:42:07;;;;;;;3.55;2.35;;;29.10;52.90;;;;;;7375821;19;19914;-73
2023/06/11 08:44:35;;;;;;;3.47;2.72;;;29.10;52.30;;;;;;7397505;19;19918;-72
2023/06/11 08:47:03;;;;;;;3.50;1.80;;;29.20;52.20;;;;;;7393174;19;20264;-72
2023/06/11 08:49:30;;;;;;;9.85;2.67;;;29.20;52.60;;;;;;7355677;19;19915;-72
2023/06/11 08:52:01;;;;;;;4.05;1.92;;;29.10;51.40;;;;;;7396721;19;19919;-69
2023/06/11 08:54:27;;;;;;;5.05;2.55;;;29.10;52.60;;;;;;7384065;19;19918;-75
2023/06/11 08:56:53;;;;;;;3.33;1.90;;;29.30;54.50;;;;;;7392867;19;19962;-76
2023/06/11 08:59:19;;;;;;;;;;;29.50;52.00;;;;;;7385845;19;19926;-75
2023/06/11 09:01:50;;;;;;;3.42;1.60;;;29.30;51.50;;;;;;7393262;19;20563;-75
2023/06/11 09:04:20;;;;;;;4.63;2.55;;;29.30;51.80;;;;;;7389876;19;19953;-76
2023/06/11 09:07:05;;;;;;;4.80;2.60;;;29.60;51.20;;;;;;7395364;19;19918;-74
2023/06/11 09:09:31;;;;;;;4.40;2.35;;;29.80;51.30;;;;;;7394667;19;19925;-75
2023/06/11 09:11:57;;;;;;;4.70;2.58;;;29.90;50.80;;;;;;7375298;19;19957;-76
2023/06/11 09:14:23;;;;;;;;;;;29.80;51.10;;;;;;7346247;19;20261;-75
2023/06/11 09:16:49;;;;;;;4.32;2.28;;;29.80;51.00;;;;;;7398032;19;19911;-76
2023/06/11 09:19:19;;;;;;;4.90;2.50;;;29.80;51.10;;;;;;7399670;19;19906;-77
2023/06/11 09:21:50;;;;;;;4.63;1.58;;;30.10;51.20;;;;;;7407352;19;20271;-76
2023/06/11 09:24:18;;;;;;;5.13;2.42;;;30.30;50.70;;;;;;7373805;19;19962;-76
2023/06/11 09:26:56;;;;;;;5.47;1.42;;;30.40;50.10;;;;;;7401710;19;20278;-76
2023/06/11 09:29:23;;;;;;;3.85;2.22;;;30.10;49.80;;;;;;7398998;19;19946;-75
2023/06/11 09:31:49;;;;;;;4.00;2.42;;;29.70;49.60;;;;;;7399975;19;19910;-76
2023/06/11 09:34:22;;;;;;;4.32;2.20;;;29.80;49.50;;;;;;7403525;19;20253;-76
2023/06/11 09:36:48;;;;;;;4.60;2.30;;;29.80;49.40;;;;;;7410191;19;19925;-78
2023/06/11 09:39:15;;;;;;;3.65;2.08;;;29.90;49.60;;;;;;7405384;19;19914;-77
2023/06/11 09:41:48;;;;;;;5.00;2.03;;;29.80;49.20;;;;;;7409149;19;19930;-76
2023/06/11 09:44:17;;;;;;;4.50;2.30;;;29.70;49.10;;;;;;7406966;19;19915;-76
2023/06/11 09:46:44;;;;;;;6.38;2.67;;;30.00;49.40;;;;;;7400393;19;19918;-74
2023/06/11 09:49:11;;;;;;;4.97;2.22;;;30.10;49.80;;;;;;7400494;19;19918;-74
2023/06/11 09:51:39;;;;;;;5.90;2.72;;;29.80;49.30;;;;;;7396941;19;19939;-74
2023/06/11 09:54:09;;;;;;;3.85;2.10;;;30.10;49.10;;;;;;7396101;19;20365;-72
2023/06/11 09:56:36;;;;;;;7.13;2.58;;;29.70;49.50;;;;;;7403484;19;19914;-73
2023/06/11 09:59:04;;;;;;;6.40;2.60;;;29.40;50.60;;;;;;7400889;19;19930;-73
2023/06/11 10:01:31;;;;;;;5.55;2.60;;;29.20;50.90;;;;;;7399328;19;19930;-73
2023/06/11 10:03:59;;;;;;;3.83;1.58;;;29.20;51.00;;;;;;7402228;19;20303;-73
2023/06/11 10:06:33;;;;;;;3.97;2.38;;;29.30;50.60;;;;;;7400959;19;19949;-73
2023/06/11 10:09:03;;;;;;;4.25;2.72;;;29.20;50.80;;;;;;7403111;19;19915;-74
2023/06/11 10:11:38;;;;;;;6.63;2.78;;;29.10;50.90;;;;;;7399169;19;19919;-74
2023/06/11 10:14:05;;;;;;;3.47;2.15;;;28.60;50.90;;;;;;7398813;19;20023;-73
2023/06/11 10:16:34;;;;;;;3.97;3.00;;;29.00;51.00;;;;;;7401274;19;19950;-73
2023/06/11 10:19:06;;;;;;;4.18;2.28;;;28.80;50.80;;;;;;7403161;19;19923;-73
2023/06/11 10:21:50;;;;;;;4.68;2.92;;;28.90;51.20;;;;;;7396999;19;19918;-74
2023/06/11 10:24:25;;;;;;;;;;;29.30;50.80;;;;;;7402063;19;19921;-74
2023/06/11 10:27:14;;;;;;;5.30;2.85;;;29.40;50.00;;;;;;7399262;19;19995;-76
2023/06/11 10:29:47;;;;;;;4.65;3.08;;;29.40;50.10;;;;;;7399685;19;20362;-78
2023/06/11 10:32:22;;;;;;;7.38;3.38;;;29.10;50.40;;;;;;7400498;19;20346;-77
2023/06/11 10:34:57;;;;;;;4.68;2.40;;;29.00;50.90;;;;;;7367215;19;20356;-77
2023/06/11 10:37:30;;;;;;;3.78;1.85;;;29.20;50.50;;;;;;7401236;19;20284;-77
2023/06/11 10:39:57;;;;;;;4.63;2.40;;;29.20;50.50;;;;;;7398421;19;19926;-76
2023/06/11 10:42:35;;;;;;;;;;;29.30;50.50;;;;;;7402494;19;19958;-77
2023/06/11 10:45:09;;;;;;;5.70;2.67;;;29.70;50.40;;;;;;7404429;19;19945;-76
2023/06/11 10:47:43;;;;;;;4.75;2.35;;;29.60;50.50;;;;;;7403574;19;19915;-77
2023/06/11 10:50:10;;;;;;;4.82;2.33;;;29.50;50.20;;;;;;7404111;19;19910;-77
2023/06/11 10:52:54;;;;;;;4.68;2.95;;;29.20;51.00;;;;;;7371713;19;19925;-77
2023/06/11 10:55:21;;;;;;;5.78;2.97;;;29.20;51.60;;;;;;7400829;19;19929;-77
2023/06/11 10:57:51;;;;;;;4.47;2.65;;;29.00;51.40;;;;;;7399072;19;19922;-76
2023/06/11 11:00:17;;;;;;;3.97;2.47;;;29.10;50.80;;;;;;7400869;19;19919;-77
2023/06/11 11:02:43;;;;;;;;;;;29.00;50.60;;;;;;7402275;19;19922;-76
2023/06/11 11:05:10;;;;;;;4.38;2.72;;;29.10;51.10;;;;;;7399014;19;19918;-77
2023/06/11 11:07:36;;;;;;;4.43;2.00;;;29.20;50.50;;;;;;7402012;19;19925;-76
2023/06/11 11:10:06;;;;;;;4.28;2.45;;;28.90;50.50;;;;;;7399362;19;19932;-77
2023/06/11 11:12:43;;;;;;;3.85;1.85;;;28.90;50.90;;;;;;7401160;19;20251;-77
2023/06/11 11:15:12;;;;;;;6.05;3.13;;;29.00;50.80;;;;;;7401106;19;19911;-77
2023/06/11 11:17:42;;;;;;;4.20;2.13;;;28.70;50.70;;;;;;7401748;19;20412;-77
2023/06/11 11:20:19;;;;;;;4.78;2.13;;;28.70;51.30;;;;;;7400660;19;19937;-77
2023/06/11 11:22:54;;;;;;;4.20;2.55;;;28.70;50.90;;;;;;7402136;19;19914;-77
2023/06/11 11:25:29;;;;;;;5.57;2.63;;;28.70;51.30;;;;;;7402934;19;20472;-76
2023/06/11 11:27:56;;;;;;;3.80;2.50;;;28.70;51.10;;;;;;7399542;19;20403;-77
2023/06/11 11:30:24;;;;;;;3.97;2.28;;;28.70;51.40;;;;;;7399678;19;19971;-77
2023/06/11 11:32:52;;;;;;;3.40;2.58;;;28.60;51.60;;;;;;7399455;19;19986;-77
2023/06/11 11:35:20;;;;;;;3.20;2.58;;;28.60;52.20;;;;;;7397388;19;19929;-77
2023/06/11 11:37:47;;;;;;;4.00;2.53;;;28.60;51.20;;;;;;7397924;19;19925;-77
2023/06/11 11:40:17;;;;;;;4.20;2.45;;;28.60;51.60;;;;;;7398676;19;19966;-77
2023/06/11 11:43:02;;;;;;;4.43;2.17;;;28.60;51.60;;;;;;7400966;19;19929;-77
2023/06/11 11:45:32;;;;;;;4.50;2.20;;;28.50;51.50;;;;;;7402737;19;20534;-77
2023/06/11 11:48:00;;;;;;;5.43;3.22;;;28.70;52.30;;;;;;7402696;19;19926;-77
2023/06/11 11:50:27;;;;;;;8.40;5.07;;;28.90;51.40;;;;;;7402184;19;20348;-77
2023/06/11 11:53:08;;;;;;;6.82;5.03;;;28.70;51.80;;;;;;7402421;19;19922;-78
2023/06/11 11:55:39;;;;;;;4.55;3.13;;;28.60;51.60;;;;;;7393882;19;19924;-77
2023/06/11 11:58:09;;;;;;;4.70;3.13;;;28.80;51.40;;;;;;7399047;19;19929;-77
2023/06/11 12:00:40;;;;;;;4.85;2.90;;;28.80;51.00;;;;;;7399525;19;19935;-78
2023/06/11 12:03:08;;;;;;;4.97;3.08;;;28.80;51.50;;;;;;7400306;19;19922;-77
2023/06/11 12:05:35;;;;;;;7.32;2.88;;;28.90;51.70;;;;;;7391264;19;19918;-77
2023/06/11 12:08:02;;;;;;;5.07;2.72;;;28.60;51.80;;;;;;7361528;19;19922;-69
2023/06/11 12:10:28;;;;;;;3.58;2.35;;;28.60;52.50;;;;;;7334974;19;19922;-70
2023/06/11 12:12:54;;;;;;;4.22;2.35;;;28.70;51.70;;;;;;7333195;19;19924;-70
2023/06/11 12:15:20;;;;;;;4.32;2.95;;;29.00;51.90;;;;;;7350358;19;19918;-70
2023/06/11 12:17:45;;;;;;;4.57;3.35;;;30.00;50.50;;;;;;7332281;19;19981;-69
2023/06/11 12:20:12;;;;;;;4.93;2.75;;;30.80;49.80;;;;;;7346472;19;19926;-72
2023/06/11 12:22:38;;;;;;;5.90;3.55;;;31.70;48.60;;;;;;7341634;19;19929;-69
2023/06/11 12:25:05;;;;;;;6.93;3.17;;;32.10;48.60;;;;;;7337213;19;20013;-69
2023/06/11 12:27:31;;;;;;;6.53;2.83;;;32.00;47.40;;;;;;7349671;19;19944;-69
2023/06/11 12:29:57;;;;;;;;;;;32.30;46.50;;;;;;7351240;19;19919;-68
2023/06/11 12:32:25;;;;;;;5.25;3.70;;;31.90;46.50;;;;;;7378553;19;19958;-76
2023/06/11 12:34:51;;;;;;;4.88;2.78;;;31.80;47.00;;;;;;7403184;19;19922;-75
2023/06/11 12:37:17;;;;;;;4.88;3.83;;;32.10;47.50;;;;;;7406679;19;19925;-77
2023/06/11 12:39:46;;;;;;;6.18;4.40;;;32.40;46.60;;;;;;7405380;19;19943;-77
2023/06/11 12:42:14;;;;;;;4.13;2.85;;;33.20;46.00;;;;;;7404368;19;20306;-76
2023/06/11 12:44:45;;;;;;;4.35;3.88;;;34.00;44.90;;;;;;7402629;19;20355;-76
2023/06/11 12:47:11;;;;;;;6.85;4.00;;;34.00;44.10;;;;;;7401895;19;19918;-76
2023/06/11 12:49:37;;;;;;;4.70;3.13;;;33.60;45.20;;;;;;7404147;19;19922;-77
2023/06/11 12:52:03;;;;;;;;;;;33.50;44.00;;;;;;7403798;19;19946;-76